sensor_id;sensor_type;location;lat;lon;timestamp;P1;durP1;ratioP1;P2;durP2;ratioP2
11791;SDS011;5953;52.372;9.918;2024-01-30T00:01:35;11.80;;;8.43;;
11791;SDS011;5953;52.372;9.918;2024-01-30T00:04:06;11.90;;;9.57;;
11791;SDS011;5953;52.372;9.918;2024-01-30T00:06:35;14.43;;;9.47;;
11791;SDS011;5953;52.372;9.918;2024-01-30T00:09:03;11.90;;;9.20;;
11791;SDS011;5953;52.372;9.918;2024-01-30T00:11:31;13.17;;;8.80;;
11791;SDS011;5953;52.372;9.918;2024-01-30T00:13:59;11.33;;;7.97;;
11791;SDS011;5953;52.372;9.918;2024-01-30T00:16:27;9.90;;;8.30;;
11791;SDS011;5953;52.372;9.918;2024-01-30T00:18:56;9.77;;;7.63;;
11791;SDS011;5953;52.372;9.918;2024-01-30T00:21:26;11.07;;;8.47;;
11791;SDS011;5953;52.372;9.918;2024-01-30T00:23:54;11.50;;;8.20;;
11791;SDS011;5953;52.372;9.918;2024-01-30T00:26:25;12.73;;;9.53;;
11791;SDS011;5953;52.372;9.918;2024-01-30T00:28:54;14.40;;;9.83;;
11791;SDS011;5953;52.372;9.918;2024-01-30T00:31:23;15.90;;;10.60;;
11791;SDS011;5953;52.372;9.918;2024-01-30T00:33:55;14.17;;;9.27;;
11791;SDS011;5953;52.372;9.918;2024-01-30T00:36:23;17.33;;;10.83;;
11791;SDS011;5953;52.372;9.918;2024-01-30T00:38:56;12.80;;;9.73;;
11791;SDS011;5953;52.372;9.918;2024-01-30T00:41:24;13.80;;;9.73;;
11791;SDS011;5953;52.372;9.918;2024-01-30T00:43:53;13.37;;;9.87;;
11791;SDS011;5953;52.372;9.918;2024-01-30T00:46:21;11.43;;;9.03;;
11791;SDS011;5953;52.372;9.918;2024-01-30T00:48:49;10.23;;;8.37;;
11791;SDS011;5953;52.372;9.918;2024-01-30T00:51:16;13.30;;;9.07;;
11791;SDS011;5953;52.372;9.918;2024-01-30T00:53:46;10.87;;;8.57;;
11791;SDS011;5953;52.372;9.918;2024-01-30T00:56:14;9.37;;;8.17;;
11791;SDS011;5953;52.372;9.918;2024-01-30T00:58:44;10.43;;;8.20;;
11791;SDS011;5953;52.372;9.918;2024-01-30T01:01:12;11.40;;;8.60;;
11791;SDS011;5953;52.372;9.918;2024-01-30T01:03:41;9.53;;;7.40;;
11791;SDS011;5953;52.372;9.918;2024-01-30T01:06:10;13.63;;;8.00;;
11791;SDS011;5953;52.372;9.918;2024-01-30T01:08:38;11.67;;;8.03;;
11791;SDS011;5953;52.372;9.918;2024-01-30T01:11:07;9.70;;;7.90;;
11791;SDS011;5953;52.372;9.918;2024-01-30T01:13:36;10.17;;;7.77;;
11791;SDS011;5953;52.372;9.918;2024-01-30T01:16:03;11.37;;;8.13;;
11791;SDS011;5953;52.372;9.918;2024-01-30T01:18:32;8.83;;;7.93;;
11791;SDS011;5953;52.372;9.918;2024-01-30T01:21:13;11.13;;;7.40;;
11791;SDS011;5953;52.372;9.918;2024-01-30T01:23:41;10.13;;;8.50;;
11791;SDS011;5953;52.372;9.918;2024-01-30T01:26:10;10.53;;;8.10;;
11791;SDS011;5953;52.372;9.918;2024-01-30T01:28:39;11.20;;;7.60;;
11791;SDS011;5953;52.372;9.918;2024-01-30T01:31:06;9.70;;;7.53;;
11791;SDS011;5953;52.372;9.918;2024-01-30T01:33:34;9.47;;;8.03;;
11791;SDS011;5953;52.372;9.918;2024-01-30T01:36:04;8.77;;;7.57;;
11791;SDS011;5953;52.372;9.918;2024-01-30T01:38:33;12.00;;;7.70;;
11791;SDS011;5953;52.372;9.918;2024-01-30T01:41:01;10.47;;;7.53;;
11791;SDS011;5953;52.372;9.918;2024-01-30T01:43:30;8.70;;;7.23;;
11791;SDS011;5953;52.372;9.918;2024-01-30T01:45:58;10.80;;;7.17;;
11791;SDS011;5953;52.372;9.918;2024-01-30T01:48:25;10.00;;;7.80;;
11791;SDS011;5953;52.372;9.918;2024-01-30T01:50:56;13.23;;;7.87;;
11791;SDS011;5953;52.372;9.918;2024-01-30T01:53:25;12.37;;;8.53;;
11791;SDS011;5953;52.372;9.918;2024-01-30T01:55:54;12.50;;;7.87;;
11791;SDS011;5953;52.372;9.918;2024-01-30T01:58:22;10.77;;;7.60;;
11791;SDS011;5953;52.372;9.918;2024-01-30T02:01:00;9.63;;;8.00;;
11791;SDS011;5953;52.372;9.918;2024-01-30T02:03:30;9.37;;;7.20;;
11791;SDS011;5953;52.372;9.918;2024-01-30T02:05:58;9.47;;;7.33;;
11791;SDS011;5953;52.372;9.918;2024-01-30T02:08:26;10.50;;;7.50;;
11791;SDS011;5953;52.372;9.918;2024-01-30T02:11:01;11.50;;;8.07;;
11791;SDS011;5953;52.372;9.918;2024-01-30T02:13:30;12.57;;;8.03;;
11791;SDS011;5953;52.372;9.918;2024-01-30T02:16:00;13.37;;;8.70;;
11791;SDS011;5953;52.372;9.918;2024-01-30T02:18:29;11.07;;;9.20;;
11791;SDS011;5953;52.372;9.918;2024-01-30T02:20:58;12.47;;;8.43;;
11791;SDS011;5953;52.372;9.918;2024-01-30T02:23:29;11.80;;;9.37;;
11791;SDS011;5953;52.372;9.918;2024-01-30T02:26:00;14.20;;;9.17;;
11791;SDS011;5953;52.372;9.918;2024-01-30T02:28:28;13.30;;;9.10;;
11791;SDS011;5953;52.372;9.918;2024-01-30T02:30:56;12.47;;;8.37;;
11791;SDS011;5953;52.372;9.918;2024-01-30T02:33:26;11.13;;;8.00;;
11791;SDS011;5953;52.372;9.918;2024-01-30T02:35:56;9.80;;;7.77;;
11791;SDS011;5953;52.372;9.918;2024-01-30T02:38:24;11.73;;;8.77;;
11791;SDS011;5953;52.372;9.918;2024-01-30T02:40:54;12.10;;;8.13;;
11791;SDS011;5953;52.372;9.918;2024-01-30T02:43:26;13.20;;;8.67;;
11791;SDS011;5953;52.372;9.918;2024-01-30T02:45:54;11.43;;;9.13;;
11791;SDS011;5953;52.372;9.918;2024-01-30T02:48:22;11.10;;;8.57;;
11791;SDS011;5953;52.372;9.918;2024-01-30T02:50:50;11.60;;;8.70;;
11791;SDS011;5953;52.372;9.918;2024-01-30T02:53:19;12.50;;;9.10;;
11791;SDS011;5953;52.372;9.918;2024-01-30T02:55:47;11.03;;;9.13;;
11791;SDS011;5953;52.372;9.918;2024-01-30T02:58:16;13.13;;;9.73;;
11791;SDS011;5953;52.372;9.918;2024-01-30T03:00:48;11.50;;;9.30;;
11791;SDS011;5953;52.372;9.918;2024-01-30T03:03:16;12.83;;;8.90;;
11791;SDS011;5953;52.372;9.918;2024-01-30T03:05:45;13.50;;;9.50;;
11791;SDS011;5953;52.372;9.918;2024-01-30T03:08:14;10.70;;;9.17;;
11791;SDS011;5953;52.372;9.918;2024-01-30T03:10:42;12.33;;;8.50;;
11791;SDS011;5953;52.372;9.918;2024-01-30T03:13:15;14.47;;;9.73;;
11791;SDS011;5953;52.372;9.918;2024-01-30T03:16:08;12.43;;;9.67;;
11791;SDS011;5953;52.372;9.918;2024-01-30T03:18:39;10.70;;;7.83;;
11791;SDS011;5953;52.372;9.918;2024-01-30T03:21:08;13.43;;;9.50;;
11791;SDS011;5953;52.372;9.918;2024-01-30T03:23:39;13.30;;;9.30;;
11791;SDS011;5953;52.372;9.918;2024-01-30T03:26:07;12.50;;;8.70;;
11791;SDS011;5953;52.372;9.918;2024-01-30T03:28:36;12.00;;;9.20;;
11791;SDS011;5953;52.372;9.918;2024-01-30T03:31:04;10.30;;;9.20;;
11791;SDS011;5953;52.372;9.918;2024-01-30T03:33:33;10.90;;;9.67;;
11791;SDS011;5953;52.372;9.918;2024-01-30T03:36:02;13.67;;;9.60;;
11791;SDS011;5953;52.372;9.918;2024-01-30T03:38:31;13.73;;;9.23;;
11791;SDS011;5953;52.372;9.918;2024-01-30T03:40:59;13.33;;;9.30;;
11791;SDS011;5953;52.372;9.918;2024-01-30T03:43:29;12.47;;;9.53;;
11791;SDS011;5953;52.372;9.918;2024-01-30T03:46:00;14.73;;;9.73;;
11791;SDS011;5953;52.372;9.918;2024-01-30T03:48:28;10.03;;;9.00;;
11791;SDS011;5953;52.372;9.918;2024-01-30T03:50:58;10.77;;;8.63;;
11791;SDS011;5953;52.372;9.918;2024-01-30T03:53:29;13.40;;;9.50;;
11791;SDS011;5953;52.372;9.918;2024-01-30T03:55:59;12.40;;;9.03;;
11791;SDS011;5953;52.372;9.918;2024-01-30T03:58:33;15.37;;;9.63;;
11791;SDS011;5953;52.372;9.918;2024-01-30T04:01:02;10.37;;;8.80;;
11791;SDS011;5953;52.372;9.918;2024-01-30T04:03:32;13.30;;;10.03;;
11791;SDS011;5953;52.372;9.918;2024-01-30T04:06:04;13.47;;;9.07;;
11791;SDS011;5953;52.372;9.918;2024-01-30T04:08:32;15.77;;;9.17;;
11791;SDS011;5953;52.372;9.918;2024-01-30T04:11:03;14.43;;;9.17;;
11791;SDS011;5953;52.372;9.918;2024-01-30T04:13:32;12.87;;;9.30;;
11791;SDS011;5953;52.372;9.918;2024-01-30T04:16:01;14.53;;;9.53;;
11791;SDS011;5953;52.372;9.918;2024-01-30T04:18:31;15.47;;;8.30;;
11791;SDS011;5953;52.372;9.918;2024-01-30T04:21:00;11.43;;;8.93;;
11791;SDS011;5953;52.372;9.918;2024-01-30T04:23:28;12.57;;;8.20;;
11791;SDS011;5953;52.372;9.918;2024-01-30T04:25:56;11.60;;;8.60;;
11791;SDS011;5953;52.372;9.918;2024-01-30T04:28:23;11.77;;;7.90;;
11791;SDS011;5953;52.372;9.918;2024-01-30T04:31:11;10.93;;;7.77;;
11791;SDS011;5953;52.372;9.918;2024-01-30T04:34:05;10.87;;;7.27;;
11791;SDS011;5953;52.372;9.918;2024-01-30T04:36:33;11.57;;;8.00;;
11791;SDS011;5953;52.372;9.918;2024-01-30T04:39:00;12.50;;;8.40;;
11791;SDS011;5953;52.372;9.918;2024-01-30T04:41:30;9.67;;;7.83;;
11791;SDS011;5953;52.372;9.918;2024-01-30T04:43:58;9.73;;;7.27;;
11791;SDS011;5953;52.372;9.918;2024-01-30T04:46:28;9.37;;;6.77;;
11791;SDS011;5953;52.372;9.918;2024-01-30T04:48:55;12.00;;;7.27;;
11791;SDS011;5953;52.372;9.918;2024-01-30T04:51:23;8.40;;;7.47;;
11791;SDS011;5953;52.372;9.918;2024-01-30T04:53:51;10.13;;;7.50;;
11791;SDS011;5953;52.372;9.918;2024-01-30T04:56:19;10.10;;;7.60;;
11791;SDS011;5953;52.372;9.918;2024-01-30T04:58:47;10.23;;;7.53;;
11791;SDS011;5953;52.372;9.918;2024-01-30T05:01:17;9.77;;;7.77;;
11791;SDS011;5953;52.372;9.918;2024-01-30T05:03:46;10.27;;;7.37;;
11791;SDS011;5953;52.372;9.918;2024-01-30T05:06:23;11.13;;;6.87;;
11791;SDS011;5953;52.372;9.918;2024-01-30T05:08:51;9.70;;;7.00;;
11791;SDS011;5953;52.372;9.918;2024-01-30T05:11:19;16.57;;;10.93;;
11791;SDS011;5953;52.372;9.918;2024-01-30T05:13:47;26.93;;;14.20;;
11791;SDS011;5953;52.372;9.918;2024-01-30T05:16:15;37.23;;;17.10;;
11791;SDS011;5953;52.372;9.918;2024-01-30T05:18:42;32.20;;;17.53;;
11791;SDS011;5953;52.372;9.918;2024-01-30T05:21:12;31.13;;;15.50;;
11791;SDS011;5953;52.372;9.918;2024-01-30T05:23:40;22.57;;;14.63;;
11791;SDS011;5953;52.372;9.918;2024-01-30T05:26:08;18.63;;;12.23;;
11791;SDS011;5953;52.372;9.918;2024-01-30T05:28:35;18.30;;;10.63;;
11791;SDS011;5953;52.372;9.918;2024-01-30T05:31:04;12.27;;;9.70;;
11791;SDS011;5953;52.372;9.918;2024-01-30T05:33:31;10.10;;;8.33;;
11791;SDS011;5953;52.372;9.918;2024-01-30T05:36:00;9.90;;;7.43;;
11791;SDS011;5953;52.372;9.918;2024-01-30T05:38:30;12.17;;;8.83;;
11791;SDS011;5953;52.372;9.918;2024-01-30T05:40:58;14.80;;;7.97;;
11791;SDS011;5953;52.372;9.918;2024-01-30T05:43:28;12.57;;;8.23;;
11791;SDS011;5953;52.372;9.918;2024-01-30T05:45:56;11.10;;;7.80;;
11791;SDS011;5953;52.372;9.918;2024-01-30T05:48:24;14.03;;;8.57;;
11791;SDS011;5953;52.372;9.918;2024-01-30T05:50:56;9.93;;;7.97;;
11791;SDS011;5953;52.372;9.918;2024-01-30T05:53:24;10.40;;;7.27;;
11791;SDS011;5953;52.372;9.918;2024-01-30T05:55:56;10.30;;;7.90;;
11791;SDS011;5953;52.372;9.918;2024-01-30T05:58:24;9.10;;;7.07;;
11791;SDS011;5953;52.372;9.918;2024-01-30T06:00:53;10.20;;;7.30;;
11791;SDS011;5953;52.372;9.918;2024-01-30T06:03:21;12.10;;;6.67;;
11791;SDS011;5953;52.372;9.918;2024-01-30T06:05:51;8.70;;;6.70;;
11791;SDS011;5953;52.372;9.918;2024-01-30T06:08:21;10.80;;;7.73;;
11791;SDS011;5953;52.372;9.918;2024-01-30T06:10:49;7.83;;;7.03;;
11791;SDS011;5953;52.372;9.918;2024-01-30T06:13:20;10.97;;;8.17;;
11791;SDS011;5953;52.372;9.918;2024-01-30T06:15:48;10.00;;;7.93;;
11791;SDS011;5953;52.372;9.918;2024-01-30T06:18:16;8.70;;;7.13;;
11791;SDS011;5953;52.372;9.918;2024-01-30T06:20:44;11.70;;;7.70;;
11791;SDS011;5953;52.372;9.918;2024-01-30T06:23:12;8.43;;;6.97;;
11791;SDS011;5953;52.372;9.918;2024-01-30T06:25:42;13.33;;;8.37;;
11791;SDS011;5953;52.372;9.918;2024-01-30T06:28:10;10.53;;;8.40;;
11791;SDS011;5953;52.372;9.918;2024-01-30T06:30:43;9.33;;;7.47;;
11791;SDS011;5953;52.372;9.918;2024-01-30T06:33:11;11.33;;;8.07;;
11791;SDS011;5953;52.372;9.918;2024-01-30T06:35:41;11.13;;;7.57;;
11791;SDS011;5953;52.372;9.918;2024-01-30T06:38:10;9.33;;;7.57;;
11791;SDS011;5953;52.372;9.918;2024-01-30T06:40:41;10.17;;;7.90;;
11791;SDS011;5953;52.372;9.918;2024-01-30T06:43:23;13.13;;;7.67;;
11791;SDS011;5953;52.372;9.918;2024-01-30T06:45:52;10.33;;;7.60;;
11791;SDS011;5953;52.372;9.918;2024-01-30T06:48:27;8.60;;;7.30;;
11791;SDS011;5953;52.372;9.918;2024-01-30T06:51:09;12.90;;;8.73;;
11791;SDS011;5953;52.372;9.918;2024-01-30T06:53:40;10.10;;;7.20;;
11791;SDS011;5953;52.372;9.918;2024-01-30T06:56:08;9.43;;;7.07;;
11791;SDS011;5953;52.372;9.918;2024-01-30T06:58:36;9.73;;;7.87;;
11791;SDS011;5953;52.372;9.918;2024-01-30T07:01:06;8.03;;;6.53;;
11791;SDS011;5953;52.372;9.918;2024-01-30T07:03:34;13.40;;;7.47;;
11791;SDS011;5953;52.372;9.918;2024-01-30T07:06:02;13.37;;;8.27;;
11791;SDS011;5953;52.372;9.918;2024-01-30T07:08:31;13.73;;;8.37;;
11791;SDS011;5953;52.372;9.918;2024-01-30T07:10:59;12.60;;;7.90;;
11791;SDS011;5953;52.372;9.918;2024-01-30T07:13:28;10.17;;;7.80;;
11791;SDS011;5953;52.372;9.918;2024-01-30T07:15:56;9.73;;;7.17;;
11791;SDS011;5953;52.372;9.918;2024-01-30T07:18:25;10.27;;;8.13;;
11791;SDS011;5953;52.372;9.918;2024-01-30T07:20:53;11.90;;;7.83;;
11791;SDS011;5953;52.372;9.918;2024-01-30T07:23:21;11.27;;;8.07;;
11791;SDS011;5953;52.372;9.918;2024-01-30T07:25:49;9.53;;;7.60;;
11791;SDS011;5953;52.372;9.918;2024-01-30T07:28:17;10.53;;;8.17;;
11791;SDS011;5953;52.372;9.918;2024-01-30T07:30:45;10.83;;;7.47;;
11791;SDS011;5953;52.372;9.918;2024-01-30T07:33:14;11.87;;;8.03;;
11791;SDS011;5953;52.372;9.918;2024-01-30T07:35:43;9.33;;;7.40;;
11791;SDS011;5953;52.372;9.918;2024-01-30T07:38:12;9.60;;;7.50;;
11791;SDS011;5953;52.372;9.918;2024-01-30T07:40:40;12.77;;;7.77;;
11791;SDS011;5953;52.372;9.918;2024-01-30T07:43:08;9.13;;;7.53;;
11791;SDS011;5953;52.372;9.918;2024-01-30T07:45:36;11.47;;;8.33;;
11791;SDS011;5953;52.372;9.918;2024-01-30T07:48:05;14.20;;;7.57;;
11791;SDS011;5953;52.372;9.918;2024-01-30T07:50:33;13.43;;;8.17;;
11791;SDS011;5953;52.372;9.918;2024-01-30T07:53:04;10.27;;;7.43;;
11791;SDS011;5953;52.372;9.918;2024-01-30T07:55:31;10.47;;;7.90;;
11791;SDS011;5953;52.372;9.918;2024-01-30T07:57:59;13.57;;;8.00;;
11791;SDS011;5953;52.372;9.918;2024-01-30T08:00:27;12.73;;;8.47;;
11791;SDS011;5953;52.372;9.918;2024-01-30T08:02:56;8.83;;;7.53;;
11791;SDS011;5953;52.372;9.918;2024-01-30T08:05:25;11.03;;;7.93;;
11791;SDS011;5953;52.372;9.918;2024-01-30T08:07:53;11.27;;;8.30;;
11791;SDS011;5953;52.372;9.918;2024-01-30T08:10:22;11.47;;;7.80;;
11791;SDS011;5953;52.372;9.918;2024-01-30T08:12:50;10.77;;;8.10;;
11791;SDS011;5953;52.372;9.918;2024-01-30T08:15:18;10.70;;;8.20;;
11791;SDS011;5953;52.372;9.918;2024-01-30T08:17:46;12.30;;;7.90;;
11791;SDS011;5953;52.372;9.918;2024-01-30T08:20:27;9.93;;;8.57;;
11791;SDS011;5953;52.372;9.918;2024-01-30T08:22:55;10.47;;;7.60;;
11791;SDS011;5953;52.372;9.918;2024-01-30T08:25:32;10.73;;;8.60;;
11791;SDS011;5953;52.372;9.918;2024-01-30T08:28:00;11.83;;;8.47;;
11791;SDS011;5953;52.372;9.918;2024-01-30T08:30:30;11.83;;;8.23;;
11791;SDS011;5953;52.372;9.918;2024-01-30T08:32:58;11.40;;;8.57;;
11791;SDS011;5953;52.372;9.918;2024-01-30T08:35:37;12.53;;;8.47;;
11791;SDS011;5953;52.372;9.918;2024-01-30T08:38:05;11.87;;;8.57;;
11791;SDS011;5953;52.372;9.918;2024-01-30T08:40:34;12.83;;;8.37;;
11791;SDS011;5953;52.372;9.918;2024-01-30T08:43:02;12.57;;;8.30;;
11791;SDS011;5953;52.372;9.918;2024-01-30T08:45:36;10.87;;;8.33;;
11791;SDS011;5953;52.372;9.918;2024-01-30T08:48:04;11.23;;;8.30;;
11791;SDS011;5953;52.372;9.918;2024-01-30T08:50:34;11.80;;;8.50;;
11791;SDS011;5953;52.372;9.918;2024-01-30T08:53:07;13.13;;;9.03;;
11791;SDS011;5953;52.372;9.918;2024-01-30T08:55:44;12.23;;;8.10;;
11791;SDS011;5953;52.372;9.918;2024-01-30T08:58:11;11.50;;;8.77;;
11791;SDS011;5953;52.372;9.918;2024-01-30T09:00:41;11.60;;;8.57;;
11791;SDS011;5953;52.372;9.918;2024-01-30T09:03:12;12.47;;;8.70;;
11791;SDS011;5953;52.372;9.918;2024-01-30T09:05:42;10.93;;;8.27;;
11791;SDS011;5953;52.372;9.918;2024-01-30T09:08:10;9.07;;;7.70;;
11791;SDS011;5953;52.372;9.918;2024-01-30T09:10:38;9.90;;;7.43;;
11791;SDS011;5953;52.372;9.918;2024-01-30T09:13:09;14.07;;;8.47;;
11791;SDS011;5953;52.372;9.918;2024-01-30T09:15:49;9.30;;;8.10;;
11791;SDS011;5953;52.372;9.918;2024-01-30T09:18:19;9.93;;;8.17;;
11791;SDS011;5953;52.372;9.918;2024-01-30T09:20:48;12.67;;;7.97;;
11791;SDS011;5953;52.372;9.918;2024-01-30T09:23:20;9.23;;;7.67;;
11791;SDS011;5953;52.372;9.918;2024-01-30T09:25:48;9.43;;;7.70;;
11791;SDS011;5953;52.372;9.918;2024-01-30T09:28:17;10.40;;;8.07;;
11791;SDS011;5953;52.372;9.918;2024-01-30T09:30:46;11.47;;;7.97;;
11791;SDS011;5953;52.372;9.918;2024-01-30T09:33:16;11.13;;;8.10;;
11791;SDS011;5953;52.372;9.918;2024-01-30T09:35:44;9.87;;;7.97;;
11791;SDS011;5953;52.372;9.918;2024-01-30T09:38:14;13.03;;;8.17;;
11791;SDS011;5953;52.372;9.918;2024-01-30T09:40:48;8.93;;;7.37;;
11791;SDS011;5953;52.372;9.918;2024-01-30T09:43:23;11.90;;;7.20;;
11791;SDS011;5953;52.372;9.918;2024-01-30T09:45:55;10.27;;;7.57;;
11791;SDS011;5953;52.372;9.918;2024-01-30T09:48:28;9.07;;;7.90;;
11791;SDS011;5953;52.372;9.918;2024-01-30T09:51:01;9.93;;;7.77;;
11791;SDS011;5953;52.372;9.918;2024-01-30T09:53:30;10.40;;;7.33;;
11791;SDS011;5953;52.372;9.918;2024-01-30T09:56:07;11.47;;;8.10;;
11791;SDS011;5953;52.372;9.918;2024-01-30T09:58:39;8.77;;;7.43;;
11791;SDS011;5953;52.372;9.918;2024-01-30T10:01:08;10.80;;;7.47;;
11791;SDS011;5953;52.372;9.918;2024-01-30T10:03:38;9.47;;;7.83;;
11791;SDS011;5953;52.372;9.918;2024-01-30T10:06:34;9.53;;;7.13;;
11791;SDS011;5953;52.372;9.918;2024-01-30T10:09:21;10.10;;;8.30;;
11791;SDS011;5953;52.372;9.918;2024-01-30T10:12:20;11.23;;;7.50;;
11791;SDS011;5953;52.372;9.918;2024-01-30T10:14:47;12.00;;;7.60;;
11791;SDS011;5953;52.372;9.918;2024-01-30T10:17:15;13.73;;;8.20;;
11791;SDS011;5953;52.372;9.918;2024-01-30T10:19:59;10.43;;;7.30;;
11791;SDS011;5953;52.372;9.918;2024-01-30T10:22:28;9.13;;;7.33;;
11791;SDS011;5953;52.372;9.918;2024-01-30T10:24:58;10.57;;;7.67;;
11791;SDS011;5953;52.372;9.918;2024-01-30T10:27:31;10.33;;;8.03;;
11791;SDS011;5953;52.372;9.918;2024-01-30T10:30:04;9.87;;;7.47;;
11791;SDS011;5953;52.372;9.918;2024-01-30T10:32:37;12.73;;;7.67;;
11791;SDS011;5953;52.372;9.918;2024-01-30T10:35:07;10.40;;;7.23;;
11791;SDS011;5953;52.372;9.918;2024-01-30T10:37:37;11.33;;;8.57;;
11791;SDS011;5953;52.372;9.918;2024-01-30T10:40:07;11.83;;;8.10;;
11791;SDS011;5953;52.372;9.918;2024-01-30T10:42:50;12.13;;;8.30;;
11791;SDS011;5953;52.372;9.918;2024-01-30T10:45:31;10.40;;;7.60;;
11791;SDS011;5953;52.372;9.918;2024-01-30T10:48:02;11.87;;;7.43;;
11791;SDS011;5953;52.372;9.918;2024-01-30T10:50:33;10.00;;;8.07;;
11791;SDS011;5953;52.372;9.918;2024-01-30T10:53:53;13.03;;;8.23;;
11791;SDS011;5953;52.372;9.918;2024-01-30T10:56:21;12.10;;;8.00;;
11791;SDS011;5953;52.372;9.918;2024-01-30T10:58:55;11.00;;;8.43;;
11791;SDS011;5953;52.372;9.918;2024-01-30T11:04:21;8.90;;;7.20;;
11791;SDS011;5953;52.372;9.918;2024-01-30T11:07:23;10.23;;;7.60;;
11791;SDS011;5953;52.372;9.918;2024-01-30T11:10:03;10.17;;;7.73;;
11791;SDS011;5953;52.372;9.918;2024-01-30T11:12:39;12.63;;;7.47;;
11791;SDS011;5953;52.372;9.918;2024-01-30T11:15:13;11.70;;;7.57;;
11791;SDS011;5953;52.372;9.918;2024-01-30T11:18:02;13.13;;;7.00;;
11791;SDS011;5953;52.372;9.918;2024-01-30T11:20:32;9.23;;;6.93;;
11791;SDS011;5953;52.372;9.918;2024-01-30T11:23:44;11.50;;;7.87;;
11791;SDS011;5953;52.372;9.918;2024-01-30T11:26:15;10.30;;;7.17;;
11791;SDS011;5953;52.372;9.918;2024-01-30T11:28:45;8.10;;;6.90;;
11791;SDS011;5953;52.372;9.918;2024-01-30T11:31:25;11.47;;;7.53;;
11791;SDS011;5953;52.372;9.918;2024-01-30T11:34:00;11.33;;;6.30;;
11791;SDS011;5953;52.372;9.918;2024-01-30T11:36:33;8.87;;;6.77;;
11791;SDS011;5953;52.372;9.918;2024-01-30T11:39:07;10.93;;;7.33;;
11791;SDS011;5953;52.372;9.918;2024-01-30T11:41:39;9.77;;;6.53;;
11791;SDS011;5953;52.372;9.918;2024-01-30T11:44:31;8.43;;;6.63;;
11791;SDS011;5953;52.372;9.918;2024-01-30T11:47:24;12.97;;;7.70;;
11791;SDS011;5953;52.372;9.918;2024-01-30T11:50:22;8.33;;;7.37;;
11791;SDS011;5953;52.372;9.918;2024-01-30T11:52:54;9.10;;;7.53;;
11791;SDS011;5953;52.372;9.918;2024-01-30T11:55:49;11.20;;;7.47;;
11791;SDS011;5953;52.372;9.918;2024-01-30T11:58:44;9.93;;;7.97;;
11791;SDS011;5953;52.372;9.918;2024-01-30T12:01:33;9.93;;;7.27;;
11791;SDS011;5953;52.372;9.918;2024-01-30T12:04:12;9.53;;;7.47;;
11791;SDS011;5953;52.372;9.918;2024-01-30T12:07:13;12.83;;;7.97;;
11791;SDS011;5953;52.372;9.918;2024-01-30T12:10:02;9.47;;;7.70;;
11791;SDS011;5953;52.372;9.918;2024-01-30T12:13:16;9.20;;;7.47;;
11791;SDS011;5953;52.372;9.918;2024-01-30T12:16:23;10.70;;;7.00;;
11791;SDS011;5953;52.372;9.918;2024-01-30T12:18:58;9.53;;;7.47;;
11791;SDS011;5953;52.372;9.918;2024-01-30T12:21:29;11.10;;;6.80;;
11791;SDS011;5953;52.372;9.918;2024-01-30T12:24:00;10.37;;;7.37;;
11791;SDS011;5953;52.372;9.918;2024-01-30T12:26:30;11.73;;;7.90;;
11791;SDS011;5953;52.372;9.918;2024-01-30T12:28:57;8.80;;;7.90;;
11791;SDS011;5953;52.372;9.918;2024-01-30T12:31:27;10.80;;;6.97;;
11791;SDS011;5953;52.372;9.918;2024-01-30T12:34:00;11.13;;;8.03;;
11791;SDS011;5953;52.372;9.918;2024-01-30T12:36:28;14.43;;;8.63;;
11791;SDS011;5953;52.372;9.918;2024-01-30T12:39:03;8.93;;;7.63;;
11791;SDS011;5953;52.372;9.918;2024-01-30T12:41:54;9.93;;;7.87;;
11791;SDS011;5953;52.372;9.918;2024-01-30T12:44:45;11.33;;;6.83;;
11791;SDS011;5953;52.372;9.918;2024-01-30T12:47:20;12.30;;;7.53;;
11791;SDS011;5953;52.372;9.918;2024-01-30T12:50:06;9.07;;;7.53;;
11791;SDS011;5953;52.372;9.918;2024-01-30T12:53:07;10.00;;;7.27;;
11791;SDS011;5953;52.372;9.918;2024-01-30T12:55:44;11.33;;;7.27;;
11791;SDS011;5953;52.372;9.918;2024-01-30T12:58:24;10.10;;;8.13;;
11791;SDS011;5953;52.372;9.918;2024-01-30T13:01:02;10.73;;;7.30;;
11791;SDS011;5953;52.372;9.918;2024-01-30T13:03:37;8.43;;;7.07;;
11791;SDS011;5953;52.372;9.918;2024-01-30T13:06:15;9.73;;;7.90;;
11791;SDS011;5953;52.372;9.918;2024-01-30T13:09:05;10.23;;;7.70;;
11791;SDS011;5953;52.372;9.918;2024-01-30T13:12:22;7.73;;;6.93;;
11791;SDS011;5953;52.372;9.918;2024-01-30T13:15:07;9.03;;;7.43;;
11791;SDS011;5953;52.372;9.918;2024-01-30T13:18:23;8.63;;;6.90;;
11791;SDS011;5953;52.372;9.918;2024-01-30T13:20:57;8.37;;;7.33;;
11791;SDS011;5953;52.372;9.918;2024-01-30T13:23:31;8.57;;;7.47;;
11791;SDS011;5953;52.372;9.918;2024-01-30T13:26:18;12.77;;;7.70;;
11791;SDS011;5953;52.372;9.918;2024-01-30T13:29:05;10.10;;;6.93;;
11791;SDS011;5953;52.372;9.918;2024-01-30T13:31:47;9.87;;;7.03;;
11791;SDS011;5953;52.372;9.918;2024-01-30T13:34:39;10.67;;;7.50;;
11791;SDS011;5953;52.372;9.918;2024-01-30T13:38:10;9.17;;;8.03;;
11791;SDS011;5953;52.372;9.918;2024-01-30T13:41:17;9.23;;;7.43;;
11791;SDS011;5953;52.372;9.918;2024-01-30T13:43:59;9.50;;;7.00;;
11791;SDS011;5953;52.372;9.918;2024-01-30T13:50:50;11.43;;;7.07;;
11791;SDS011;5953;52.372;9.918;2024-01-30T13:53:13;9.40;;;7.20;;
11791;SDS011;5953;52.372;9.918;2024-01-30T13:56:15;10.23;;;7.27;;
11791;SDS011;5953;52.372;9.918;2024-01-30T13:59:03;10.50;;;6.83;;
11791;SDS011;5953;52.372;9.918;2024-01-30T14:01:56;12.03;;;7.17;;
11791;SDS011;5953;52.372;9.918;2024-01-30T14:04:57;10.83;;;7.47;;
11791;SDS011;5953;52.372;9.918;2024-01-30T14:08:04;10.77;;;7.50;;
11791;SDS011;5953;52.372;9.918;2024-01-30T14:11:18;10.40;;;7.40;;
11791;SDS011;5953;52.372;9.918;2024-01-30T14:13:48;10.40;;;7.50;;
11791;SDS011;5953;52.372;9.918;2024-01-30T14:16:19;14.00;;;7.80;;
11791;SDS011;5953;52.372;9.918;2024-01-30T14:18:54;10.73;;;7.37;;
11791;SDS011;5953;52.372;9.918;2024-01-30T14:21:38;10.33;;;7.70;;
11791;SDS011;5953;52.372;9.918;2024-01-30T14:24:11;9.13;;;7.37;;
11791;SDS011;5953;52.372;9.918;2024-01-30T14:26:51;9.73;;;7.30;;
11791;SDS011;5953;52.372;9.918;2024-01-30T14:29:18;8.97;;;7.37;;
11791;SDS011;5953;52.372;9.918;2024-01-30T14:31:52;8.37;;;7.37;;
11791;SDS011;5953;52.372;9.918;2024-01-30T14:34:35;11.63;;;7.37;;
11791;SDS011;5953;52.372;9.918;2024-01-30T14:37:12;10.33;;;7.20;;
11791;SDS011;5953;52.372;9.918;2024-01-30T14:40:01;10.00;;;6.70;;
11791;SDS011;5953;52.372;9.918;2024-01-30T14:42:39;8.07;;;6.37;;
11791;SDS011;5953;52.372;9.918;2024-01-30T14:45:07;7.97;;;7.17;;
11791;SDS011;5953;52.372;9.918;2024-01-30T14:47:38;13.37;;;7.23;;
11791;SDS011;5953;52.372;9.918;2024-01-30T14:50:13;9.30;;;6.63;;
11791;SDS011;5953;52.372;9.918;2024-01-30T14:52:44;11.07;;;7.50;;
11791;SDS011;5953;52.372;9.918;2024-01-30T14:55:12;12.07;;;7.83;;
11791;SDS011;5953;52.372;9.918;2024-01-30T14:57:40;9.30;;;7.17;;
11791;SDS011;5953;52.372;9.918;2024-01-30T15:00:34;9.10;;;7.57;;
11791;SDS011;5953;52.372;9.918;2024-01-30T15:03:28;12.57;;;7.23;;
11791;SDS011;5953;52.372;9.918;2024-01-30T15:06:02;11.00;;;7.70;;
11791;SDS011;5953;52.372;9.918;2024-01-30T15:08:32;10.57;;;7.67;;
11791;SDS011;5953;52.372;9.918;2024-01-30T15:11:02;11.83;;;7.60;;
11791;SDS011;5953;52.372;9.918;2024-01-30T15:13:31;12.37;;;8.07;;
11791;SDS011;5953;52.372;9.918;2024-01-30T15:15:59;10.80;;;8.27;;
11791;SDS011;5953;52.372;9.918;2024-01-30T15:18:31;10.03;;;7.50;;
11791;SDS011;5953;52.372;9.918;2024-01-30T15:21:02;10.60;;;7.57;;
11791;SDS011;5953;52.372;9.918;2024-01-30T15:23:40;8.80;;;7.63;;
11791;SDS011;5953;52.372;9.918;2024-01-30T15:26:09;11.00;;;7.73;;
11791;SDS011;5953;52.372;9.918;2024-01-30T15:28:38;10.40;;;7.33;;
11791;SDS011;5953;52.372;9.918;2024-01-30T15:31:11;11.83;;;8.57;;
11791;SDS011;5953;52.372;9.918;2024-01-30T15:33:48;12.07;;;7.77;;
11791;SDS011;5953;52.372;9.918;2024-01-30T15:36:16;10.17;;;8.20;;